createdAt,value
2017-07-31T00:02:15.732Z,3.03
2017-07-31T00:04:42.327Z,3.47
2017-07-31T00:07:08.940Z,2.97
2017-07-31T00:09:35.557Z,2.87
2017-07-31T00:12:02.128Z,3.33
2017-07-31T00:14:28.708Z,2.90
2017-07-31T00:16:55.277Z,3.10
2017-07-31T00:19:21.924Z,3.23
2017-07-31T00:21:48.504Z,3.27
2017-07-31T00:24:15.344Z,3.37
2017-07-31T00:26:41.964Z,3.30
2017-07-31T00:29:08.636Z,3.10
2017-07-31T00:31:35.246Z,2.87
2017-07-31T00:34:01.817Z,3.63
2017-07-31T00:36:28.488Z,3.23
2017-07-31T00:38:55.063Z,2.80
2017-07-31T00:41:21.629Z,3.20
2017-07-31T00:43:48.542Z,3.27
2017-07-31T00:46:15.120Z,2.60
2017-07-31T00:48:42.172Z,3.23
2017-07-31T00:51:08.774Z,2.50
2017-07-31T00:53:35.360Z,3.10
2017-07-31T00:56:01.948Z,2.90
2017-07-31T00:58:28.521Z,3.00
2017-07-31T01:00:55.146Z,3.20
2017-07-31T01:03:21.721Z,3.30
2017-07-31T01:05:48.285Z,3.03
2017-07-31T01:08:14.904Z,3.17
2017-07-31T01:10:41.502Z,2.93
2017-07-31T01:13:08.077Z,3.43
2017-07-31T01:15:34.685Z,3.10
2017-07-31T01:18:01.420Z,3.30
2017-07-31T01:20:28.004Z,3.43
2017-07-31T01:22:54.684Z,3.33
2017-07-31T01:25:21.254Z,3.33
2017-07-31T01:27:47.862Z,3.33
2017-07-31T01:30:14.494Z,3.17
2017-07-31T01:32:41.785Z,3.03
2017-07-31T01:35:08.440Z,3.20
2017-07-31T01:37:35.008Z,3.20
2017-07-31T01:40:01.584Z,3.47
2017-07-31T01:42:28.156Z,3.17
2017-07-31T01:44:54.840Z,3.50
2017-07-31T01:47:21.411Z,2.90
2017-07-31T01:49:48.032Z,2.63
2017-07-31T01:52:14.637Z,3.73
2017-07-31T01:54:41.288Z,3.30
2017-07-31T01:57:07.915Z,3.30
2017-07-31T01:59:34.485Z,3.10
2017-07-31T02:02:01.053Z,2.87
2017-07-31T02:04:27.640Z,3.10
2017-07-31T02:06:54.212Z,3.30
2017-07-31T02:09:20.944Z,3.33
2017-07-31T02:11:47.546Z,3.20
2017-07-31T02:14:14.170Z,3.07
2017-07-31T02:16:40.776Z,3.10
2017-07-31T02:19:07.352Z,3.60
2017-07-31T02:21:34.082Z,3.10
2017-07-31T02:24:00.724Z,3.23
2017-07-31T02:26:27.300Z,3.07
2017-07-31T02:28:53.990Z,2.90
2017-07-31T02:31:20.726Z,3.20
2017-07-31T02:33:47.719Z,3.03
2017-07-31T02:36:14.500Z,3.30
2017-07-31T02:38:41.088Z,3.47
2017-07-31T02:41:07.697Z,3.20
2017-07-31T02:43:34.259Z,3.20
2017-07-31T02:46:00.872Z,3.10
2017-07-31T02:48:27.482Z,3.13
2017-07-31T02:50:54.107Z,3.00
2017-07-31T02:53:20.667Z,3.20
2017-07-31T02:55:47.347Z,3.10
2017-07-31T02:58:14.325Z,3.27
2017-07-31T03:00:41.051Z,3.17
2017-07-31T03:03:07.632Z,3.20
2017-07-31T03:05:34.208Z,3.33
2017-07-31T03:08:00.888Z,3.13
2017-07-31T03:10:27.614Z,3.23
2017-07-31T03:12:54.180Z,3.37
2017-07-31T03:15:20.756Z,2.93
2017-07-31T03:17:47.520Z,3.10
2017-07-31T03:20:14.128Z,3.53
2017-07-31T03:22:40.913Z,3.20
2017-07-31T03:25:07.507Z,3.20
2017-07-31T03:27:34.067Z,3.20
2017-07-31T03:30:00.660Z,2.80
2017-07-31T03:32:27.223Z,3.23
2017-07-31T03:34:53.965Z,3.23
2017-07-31T03:37:20.540Z,3.07
2017-07-31T03:39:47.130Z,3.10
2017-07-31T03:42:13.935Z,3.20
2017-07-31T03:44:40.613Z,3.10
2017-07-31T03:47:07.561Z,3.47
2017-07-31T03:49:34.149Z,3.20
2017-07-31T03:52:00.711Z,3.00
2017-07-31T03:54:27.291Z,3.60
2017-07-31T03:56:53.860Z,3.23
2017-07-31T03:59:20.590Z,3.30
2017-07-31T04:01:47.182Z,3.30
2017-07-31T04:04:13.785Z,3.00
2017-07-31T04:06:40.393Z,3.07
2017-07-31T04:09:06.960Z,2.90
2017-07-31T04:11:33.585Z,2.97
2017-07-31T04:14:00.160Z,2.90
2017-07-31T04:16:26.727Z,3.30
2017-07-31T04:18:53.300Z,3.40
2017-07-31T04:21:19.984Z,3.30
2017-07-31T04:23:46.675Z,3.70
2017-07-31T04:26:13.556Z,3.07
2017-07-31T04:28:40.381Z,3.00
2017-07-31T04:31:07.142Z,2.97
2017-07-31T04:33:33.714Z,3.13
2017-07-31T04:36:00.332Z,2.87
2017-07-31T04:38:26.900Z,2.90
2017-07-31T04:40:53.525Z,3.20
2017-07-31T04:43:20.115Z,3.40
2017-07-31T04:45:46.696Z,3.10
2017-07-31T04:48:13.378Z,3.00
2017-07-31T04:50:39.983Z,3.30
2017-07-31T04:53:06.605Z,3.20
2017-07-31T04:55:33.170Z,2.93
2017-07-31T04:57:59.752Z,3.00
2017-07-31T05:00:26.475Z,3.17
2017-07-31T05:02:53.056Z,3.00
2017-07-31T05:05:19.632Z,3.03
2017-07-31T05:07:46.243Z,2.90
2017-07-31T05:10:13.243Z,3.03
2017-07-31T05:12:40.073Z,2.87
2017-07-31T05:15:06.653Z,3.00
2017-07-31T05:17:33.328Z,3.03
2017-07-31T05:19:59.916Z,3.10
2017-07-31T05:22:26.489Z,2.87
2017-07-31T05:24:53.276Z,3.03
2017-07-31T05:27:19.839Z,2.80
2017-07-31T05:29:46.411Z,2.90
2017-07-31T05:32:13.022Z,3.23
2017-07-31T05:34:39.595Z,3.27
2017-07-31T05:37:06.299Z,3.30
2017-07-31T05:39:32.886Z,2.50
2017-07-31T05:41:59.448Z,3.00
2017-07-31T05:44:26.024Z,2.73
2017-07-31T05:46:52.596Z,2.53
2017-07-31T05:49:19.211Z,2.77
2017-07-31T05:51:45.792Z,2.50
2017-07-31T05:54:12.457Z,2.97
2017-07-31T05:56:39.030Z,2.70
2017-07-31T05:59:05.598Z,2.63
2017-07-31T06:01:32.313Z,2.30
2017-07-31T06:04:02.520Z,2.50
2017-07-31T06:06:29.131Z,2.53
2017-07-31T06:08:55.723Z,2.50
2017-07-31T06:11:22.296Z,3.00
2017-07-31T06:13:48.876Z,2.80
2017-07-31T06:16:15.464Z,2.80
2017-07-31T06:18:44.057Z,2.70
2017-07-31T06:21:10.625Z,2.83
2017-07-31T06:23:37.192Z,2.90
2017-07-31T06:26:03.772Z,3.00
2017-07-31T06:28:30.341Z,2.80
2017-07-31T06:30:56.953Z,3.00
2017-07-31T06:33:23.660Z,2.73
2017-07-31T06:35:50.227Z,2.50
2017-07-31T06:38:16.828Z,2.80
2017-07-31T06:40:43.594Z,2.73
2017-07-31T06:43:10.172Z,2.50
2017-07-31T06:45:36.748Z,2.77
2017-07-31T06:48:03.316Z,2.50
2017-07-31T06:50:29.947Z,2.30
2017-07-31T06:52:56.516Z,2.37
2017-07-31T06:55:23.192Z,2.57
2017-07-31T06:57:56.296Z,2.70
2017-07-31T07:00:22.868Z,2.93
2017-07-31T07:02:49.448Z,2.53
2017-07-31T07:05:16.274Z,2.40
2017-07-31T07:07:43.084Z,2.60
2017-07-31T07:10:09.685Z,2.50
2017-07-31T07:12:36.256Z,3.40
2017-07-31T07:15:02.846Z,2.40
2017-07-31T07:17:29.404Z,3.00
2017-07-31T07:19:56.092Z,3.13
2017-07-31T07:22:22.715Z,2.50
2017-07-31T07:24:49.283Z,2.60
2017-07-31T07:27:15.877Z,2.60
2017-07-31T07:29:42.491Z,3.03
2017-07-31T07:32:09.116Z,2.53
2017-07-31T07:34:35.672Z,2.50
2017-07-31T07:37:02.243Z,2.90
2017-07-31T07:39:28.852Z,2.87
2017-07-31T07:41:55.416Z,2.43
2017-07-31T07:44:22.208Z,2.53
2017-07-31T07:46:48.776Z,2.43
2017-07-31T07:49:15.525Z,2.40
2017-07-31T07:51:42.154Z,2.57
2017-07-31T07:54:08.724Z,2.10
2017-07-31T07:56:35.304Z,2.10
2017-07-31T07:59:01.917Z,2.10
2017-07-31T08:01:28.484Z,2.10
2017-07-31T08:03:55.062Z,2.17
2017-07-31T08:06:21.632Z,1.90
2017-07-31T08:08:48.549Z,2.10
2017-07-31T08:11:15.185Z,2.57
2017-07-31T08:13:41.773Z,2.30
2017-07-31T08:16:08.324Z,2.20
2017-07-31T08:18:34.897Z,2.20
2017-07-31T08:21:01.608Z,2.47
2017-07-31T08:23:28.181Z,2.03
2017-07-31T08:25:54.806Z,2.50
2017-07-31T08:28:21.376Z,2.53
2017-07-31T08:30:47.944Z,2.07
2017-07-31T08:33:22.636Z,2.40
2017-07-31T08:35:53.096Z,1.93
2017-07-31T08:38:19.668Z,2.30
2017-07-31T08:40:46.276Z,2.00
2017-07-31T08:43:12.987Z,2.30
2017-07-31T08:45:39.668Z,2.10
2017-07-31T08:48:06.256Z,2.13
2017-07-31T08:50:32.866Z,2.10
2017-07-31T08:52:59.443Z,2.20
2017-07-31T08:55:26.017Z,2.00
2017-07-31T08:57:52.692Z,2.20
2017-07-31T09:00:19.262Z,2.00
2017-07-31T09:02:45.904Z,2.30
2017-07-31T09:05:12.664Z,2.10
2017-07-31T09:07:39.290Z,2.00
2017-07-31T09:10:06.278Z,1.70
2017-07-31T09:12:32.852Z,2.00
2017-07-31T09:14:59.720Z,1.90
2017-07-31T09:17:26.836Z,1.63
2017-07-31T09:19:53.390Z,1.80
2017-07-31T09:22:20.069Z,1.80
2017-07-31T09:24:46.704Z,1.80
2017-07-31T09:27:14.247Z,1.50
2017-07-31T09:29:40.888Z,1.80
2017-07-31T09:32:07.500Z,1.87
2017-07-31T09:34:34.168Z,1.57
2017-07-31T09:37:00.784Z,1.50
2017-07-31T09:39:27.358Z,1.87
2017-07-31T09:41:53.949Z,1.73
2017-07-31T09:44:20.526Z,1.60
2017-07-31T09:46:47.213Z,1.50
2017-07-31T09:49:13.885Z,1.60
2017-07-31T09:51:40.514Z,1.40
2017-07-31T09:54:07.093Z,1.30
2017-07-31T09:56:33.664Z,1.10
2017-07-31T09:59:07.629Z,1.10
2017-07-31T10:01:35.229Z,1.30
2017-07-31T10:04:01.808Z,1.20
2017-07-31T10:06:28.380Z,1.30
2017-07-31T10:08:54.957Z,1.10
2017-07-31T10:11:21.558Z,1.40
2017-07-31T10:13:48.262Z,1.33
2017-07-31T10:16:14.918Z,1.50
2017-07-31T10:18:42.028Z,1.30
2017-07-31T10:21:08.597Z,1.20
2017-07-31T10:23:35.677Z,1.60
2017-07-31T10:26:02.243Z,1.53
2017-07-31T10:28:29.775Z,1.30
2017-07-31T10:30:56.353Z,1.40
2017-07-31T10:33:22.932Z,1.20
2017-07-31T10:35:49.753Z,1.43
2017-07-31T10:38:16.337Z,1.30
2017-07-31T10:40:42.924Z,1.50
2017-07-31T10:43:09.612Z,1.50
2017-07-31T10:45:36.437Z,1.30
2017-07-31T10:48:03.325Z,1.10
2017-07-31T10:50:30.097Z,1.20
2017-07-31T10:52:56.655Z,1.37
2017-07-31T10:55:23.266Z,1.20
2017-07-31T10:57:49.892Z,1.10
2017-07-31T11:00:16.805Z,1.17
2017-07-31T11:02:43.404Z,1.27
2017-07-31T11:05:10.297Z,1.13
2017-07-31T11:07:36.864Z,1.10
2017-07-31T11:10:03.432Z,1.20
2017-07-31T11:12:30.144Z,1.20
2017-07-31T11:14:56.720Z,1.07
2017-07-31T11:17:23.288Z,1.13
2017-07-31T11:19:49.879Z,1.10
2017-07-31T11:22:16.466Z,1.10
2017-07-31T11:24:43.172Z,1.20
2017-07-31T11:27:09.765Z,1.37
2017-07-31T11:29:36.365Z,1.00
2017-07-31T11:32:02.940Z,1.13
2017-07-31T11:34:29.516Z,1.30
2017-07-31T11:36:56.237Z,1.23
2017-07-31T11:39:22.840Z,1.10
2017-07-31T11:41:49.428Z,1.30
2017-07-31T11:44:16.071Z,0.90
2017-07-31T11:46:44.143Z,1.30
2017-07-31T11:49:11.154Z,0.90
2017-07-31T11:51:37.825Z,1.07
2017-07-31T11:54:04.396Z,1.00
2017-07-31T11:56:31.004Z,1.13
2017-07-31T11:58:57.567Z,1.10
2017-07-31T12:01:24.156Z,1.13
2017-07-31T12:03:50.737Z,1.00
2017-07-31T12:06:17.418Z,1.17
2017-07-31T12:08:44.104Z,1.00
2017-07-31T12:11:10.944Z,1.20
2017-07-31T12:13:37.903Z,0.90
2017-07-31T12:16:04.483Z,1.00
2017-07-31T12:18:31.044Z,1.10
2017-07-31T12:20:57.628Z,1.00
2017-07-31T12:23:24.213Z,1.10
2017-07-31T12:25:50.988Z,1.20
2017-07-31T12:28:20.475Z,1.10
2017-07-31T12:30:51.638Z,1.10
2017-07-31T12:33:18.242Z,1.30
2017-07-31T12:35:44.916Z,1.10
2017-07-31T12:38:11.594Z,1.10
2017-07-31T12:40:38.209Z,1.10
2017-07-31T12:43:06.292Z,1.80
2017-07-31T12:45:32.972Z,2.00
2017-07-31T12:47:59.533Z,0.90
2017-07-31T12:50:27.580Z,1.10
2017-07-31T12:52:54.372Z,1.30
2017-07-31T12:55:20.977Z,1.20
2017-07-31T12:57:47.555Z,1.03
2017-07-31T13:00:18.679Z,1.20
2017-07-31T13:02:45.728Z,1.10
2017-07-31T13:05:12.349Z,1.07
2017-07-31T13:07:38.927Z,1.20
2017-07-31T13:10:05.508Z,1.27
2017-07-31T13:12:32.080Z,1.27
2017-07-31T13:14:58.810Z,1.00
2017-07-31T13:17:25.385Z,1.13
2017-07-31T13:19:51.960Z,1.10
2017-07-31T13:22:18.545Z,1.10
2017-07-31T13:24:45.150Z,0.90
2017-07-31T13:27:12.469Z,1.10
2017-07-31T13:29:39.124Z,0.90
2017-07-31T13:32:05.708Z,1.00
2017-07-31T13:34:32.393Z,1.00
2017-07-31T13:37:08.974Z,1.10
2017-07-31T13:39:35.568Z,1.00
2017-07-31T13:42:02.145Z,1.03
2017-07-31T13:44:28.716Z,1.10
2017-07-31T13:46:55.291Z,1.07
2017-07-31T13:49:21.868Z,1.20
2017-07-31T13:51:48.702Z,1.10
2017-07-31T13:54:15.289Z,1.40
2017-07-31T13:56:42.013Z,1.13
2017-07-31T13:59:08.772Z,1.40
2017-07-31T14:01:35.351Z,1.20
2017-07-31T14:04:01.928Z,1.23
2017-07-31T14:06:29.361Z,1.20
2017-07-31T14:08:55.937Z,1.17
2017-07-31T14:11:23.200Z,1.17
2017-07-31T14:13:49.801Z,1.10
2017-07-31T14:16:16.392Z,1.20
2017-07-31T14:18:44.012Z,1.37
2017-07-31T14:21:10.768Z,1.20
2017-07-31T14:23:37.350Z,1.00
2017-07-31T14:26:04.226Z,1.20
2017-07-31T14:28:30.799Z,0.97
2017-07-31T14:30:57.492Z,1.50
2017-07-31T14:33:24.220Z,1.47
2017-07-31T14:35:50.831Z,1.60
2017-07-31T14:38:17.396Z,1.40
2017-07-31T14:40:44.741Z,1.50
2017-07-31T14:43:11.534Z,1.60
2017-07-31T14:45:38.096Z,1.47
2017-07-31T14:48:04.683Z,1.40
2017-07-31T14:50:31.668Z,1.30
2017-07-31T14:52:58.252Z,1.50
2017-07-31T14:55:24.824Z,1.60
2017-07-31T14:57:51.397Z,1.47
2017-07-31T15:00:17.982Z,2.47
2017-07-31T15:02:44.567Z,1.67
2017-07-31T15:05:11.591Z,1.30
2017-07-31T15:07:38.192Z,1.87
2017-07-31T15:10:04.938Z,1.63
2017-07-31T15:12:31.513Z,2.13
2017-07-31T15:14:58.101Z,2.57
2017-07-31T15:17:24.704Z,1.90
2017-07-31T15:19:51.282Z,1.63
2017-07-31T15:22:17.923Z,1.63
2017-07-31T15:24:44.550Z,1.97
2017-07-31T15:27:11.271Z,1.50
2017-07-31T15:29:37.992Z,1.83
2017-07-31T15:32:04.602Z,1.80
2017-07-31T15:34:31.157Z,1.80
2017-07-31T15:36:57.736Z,1.60
2017-07-31T15:39:24.308Z,1.80
2017-07-31T15:41:51.048Z,1.80
2017-07-31T15:44:17.730Z,1.83
2017-07-31T15:46:44.390Z,1.50
2017-07-31T15:49:11.143Z,1.70
2017-07-31T15:51:37.773Z,1.50
2017-07-31T15:54:04.398Z,1.60
2017-07-31T15:56:30.986Z,1.90
2017-07-31T15:58:57.541Z,1.60
2017-07-31T16:01:24.112Z,2.10
2017-07-31T16:03:50.689Z,1.70
2017-07-31T16:06:17.625Z,1.70
2017-07-31T16:08:44.224Z,1.80
2017-07-31T16:11:10.896Z,1.60
2017-07-31T16:13:37.528Z,2.30
2017-07-31T16:16:04.298Z,1.80
2017-07-31T16:18:31.278Z,1.93
2017-07-31T16:20:57.938Z,1.90
2017-07-31T16:23:24.526Z,1.77
2017-07-31T16:25:51.155Z,1.60
2017-07-31T16:28:17.965Z,1.70
2017-07-31T16:30:44.940Z,1.60
2017-07-31T16:33:11.618Z,1.90
2017-07-31T16:35:38.288Z,2.30
2017-07-31T16:38:04.848Z,1.73
2017-07-31T16:40:37.456Z,1.50
2017-07-31T16:43:08.814Z,1.87
2017-07-31T16:45:50.379Z,1.50
2017-07-31T16:48:22.915Z,1.70
2017-07-31T16:50:49.499Z,1.70
2017-07-31T16:53:16.073Z,1.40
2017-07-31T16:55:42.757Z,1.67
2017-07-31T16:58:20.323Z,1.80
2017-07-31T17:00:51.666Z,1.90
2017-07-31T17:03:18.925Z,2.10
2017-07-31T17:05:45.518Z,2.07
2017-07-31T17:08:13.961Z,1.70
2017-07-31T17:10:50.010Z,1.60
2017-07-31T17:13:16.720Z,1.43
2017-07-31T17:15:43.308Z,1.70
2017-07-31T17:18:10.729Z,2.00
2017-07-31T17:20:37.451Z,3.67
2017-07-31T17:23:04.117Z,3.30
2017-07-31T17:25:30.845Z,2.90
2017-07-31T17:27:57.415Z,2.93
2017-07-31T17:30:23.988Z,2.03
2017-07-31T17:32:50.582Z,2.37
2017-07-31T17:35:17.242Z,1.80
2017-07-31T17:37:44.015Z,1.97
2017-07-31T17:40:10.955Z,1.70
2017-07-31T17:42:37.519Z,1.80
2017-07-31T17:45:04.105Z,1.63
2017-07-31T17:47:30.691Z,1.83
2017-07-31T17:49:57.713Z,2.00
2017-07-31T17:52:24.312Z,1.70
2017-07-31T17:54:50.884Z,1.70
2017-07-31T17:57:17.473Z,1.73
2017-07-31T17:59:44.101Z,2.30
2017-07-31T18:02:17.174Z,2.20
2017-07-31T18:04:43.769Z,2.33
2017-07-31T18:07:10.425Z,1.77
2017-07-31T18:09:36.998Z,2.00
2017-07-31T18:12:03.664Z,2.30
2017-07-31T18:14:30.420Z,2.80
2017-07-31T18:16:57.000Z,3.00
2017-07-31T18:19:24.810Z,2.23
2017-07-31T18:21:51.404Z,1.70
2017-07-31T18:24:18.002Z,2.50
2017-07-31T18:26:44.696Z,2.33
2017-07-31T18:29:11.430Z,1.70
2017-07-31T18:31:38.091Z,2.20
2017-07-31T18:34:06.385Z,2.60
2017-07-31T18:36:33.066Z,3.40
2017-07-31T18:38:59.664Z,2.20
2017-07-31T18:41:26.240Z,2.07
2017-07-31T18:43:52.867Z,2.17
2017-07-31T18:46:19.452Z,2.40
2017-07-31T18:48:53.369Z,1.90
2017-07-31T18:54:04.444Z,2.13
2017-07-31T18:56:31.016Z,1.90
2017-07-31T18:58:57.611Z,1.83
2017-07-31T19:01:24.188Z,1.90
2017-07-31T19:03:50.760Z,2.13
2017-07-31T19:06:17.349Z,1.87
2017-07-31T19:08:44.128Z,1.87
2017-07-31T19:11:10.764Z,1.90
2017-07-31T19:13:37.334Z,2.23
2017-07-31T19:16:03.929Z,2.30
2017-07-31T19:18:30.500Z,3.33
2017-07-31T19:20:57.112Z,3.00
2017-07-31T19:23:23.962Z,2.30
2017-07-31T19:25:50.536Z,2.10
2017-07-31T19:28:17.136Z,2.40
2017-07-31T19:30:43.712Z,2.37
2017-07-31T19:33:10.338Z,2.10
2017-07-31T19:35:44.540Z,2.20
2017-07-31T19:38:11.245Z,2.50
2017-07-31T19:40:37.808Z,2.40
2017-07-31T19:43:04.441Z,2.23
2017-07-31T19:45:31.050Z,2.20
2017-07-31T19:47:57.981Z,2.20
2017-07-31T19:50:24.667Z,2.60
2017-07-31T19:52:51.215Z,2.60
2017-07-31T19:55:17.788Z,2.43
2017-07-31T19:57:44.430Z,2.53
2017-07-31T20:00:11.071Z,2.10
2017-07-31T20:02:37.636Z,2.40
2017-07-31T20:05:04.228Z,2.67
2017-07-31T20:07:30.919Z,2.90
2017-07-31T20:09:57.529Z,8.17
2017-07-31T20:12:24.256Z,7.70
2017-07-31T20:14:50.828Z,3.10
2017-07-31T20:17:17.405Z,2.50
2017-07-31T20:19:44.026Z,2.90
2017-07-31T20:22:10.652Z,2.73
2017-07-31T20:24:37.608Z,2.30
2017-07-31T20:27:04.181Z,2.70
2017-07-31T20:29:30.765Z,2.73
2017-07-31T20:31:57.349Z,2.87
2017-07-31T20:34:24.017Z,5.10
2017-07-31T20:36:50.612Z,6.40
2017-07-31T20:39:17.220Z,3.13
2017-07-31T20:41:43.896Z,2.90
2017-07-31T20:44:10.581Z,3.20
2017-07-31T20:46:37.168Z,3.23
2017-07-31T20:49:03.988Z,2.83
2017-07-31T20:51:30.552Z,2.93
2017-07-31T20:53:57.128Z,3.07
2017-07-31T20:56:23.699Z,3.20
2017-07-31T20:58:50.281Z,3.53
2017-07-31T21:01:17.046Z,3.27
2017-07-31T21:03:44.061Z,3.90
2017-07-31T21:06:10.823Z,3.00
2017-07-31T21:08:37.433Z,3.73
2017-07-31T21:11:04.033Z,3.60
2017-07-31T21:13:30.760Z,4.17
2017-07-31T21:15:57.328Z,3.90
2017-07-31T21:18:23.898Z,3.57
2017-07-31T21:20:50.529Z,3.80
2017-07-31T21:23:17.210Z,3.80
2017-07-31T21:25:43.812Z,3.43
2017-07-31T21:28:10.480Z,4.00
2017-07-31T21:30:37.057Z,4.10
2017-07-31T21:33:03.686Z,3.73
2017-07-31T21:35:30.263Z,4.40
2017-07-31T21:37:56.840Z,3.80
2017-07-31T21:40:23.417Z,4.40
2017-07-31T21:42:50.068Z,4.43
2017-07-31T21:45:16.668Z,3.97
2017-07-31T21:47:44.047Z,4.90
2017-07-31T21:50:10.859Z,5.33
2017-07-31T21:52:37.453Z,4.70
2017-07-31T21:55:04.030Z,5.10
2017-07-31T21:57:30.624Z,4.90
2017-07-31T21:59:57.200Z,4.93
2017-07-31T22:02:23.878Z,4.53
2017-07-31T22:04:50.483Z,4.20
2017-07-31T22:07:17.064Z,4.40
2017-07-31T22:09:43.920Z,4.90
2017-07-31T22:12:10.599Z,4.50
2017-07-31T22:14:37.449Z,4.30
2017-07-31T22:17:09.750Z,5.13
2017-07-31T22:19:36.329Z,5.00
2017-07-31T22:22:03.780Z,4.40
2017-07-31T22:24:30.409Z,4.80
2017-07-31T22:26:57.013Z,5.37
2017-07-31T22:29:23.586Z,4.73
2017-07-31T22:31:50.173Z,4.90
2017-07-31T22:34:16.775Z,5.23
2017-07-31T22:36:43.443Z,5.57
2017-07-31T22:39:10.136Z,6.13
2017-07-31T22:41:36.717Z,5.53
2017-07-31T22:44:03.351Z,5.23
2017-07-31T22:46:29.955Z,5.03
2017-07-31T22:48:56.517Z,5.90
2017-07-31T22:51:23.110Z,5.10
2017-07-31T22:53:49.852Z,5.33
2017-07-31T22:56:16.484Z,5.90
2017-07-31T22:58:43.657Z,5.47
2017-07-31T23:01:10.262Z,5.23
2017-07-31T23:03:37.196Z,4.80
2017-07-31T23:06:03.808Z,5.60
2017-07-31T23:08:30.392Z,5.30
2017-07-31T23:10:56.977Z,5.67
2017-07-31T23:13:23.544Z,5.13
2017-07-31T23:15:50.500Z,6.30
2017-07-31T23:18:17.078Z,5.80
2017-07-31T23:20:44.006Z,6.83
2017-07-31T23:23:10.869Z,6.23
2017-07-31T23:25:37.441Z,6.00
2017-07-31T23:28:04.227Z,7.33
2017-07-31T23:30:30.805Z,6.83
2017-07-31T23:32:57.384Z,6.50
2017-07-31T23:35:23.968Z,6.23
2017-07-31T23:37:50.541Z,6.50
2017-07-31T23:40:17.366Z,6.23
2017-07-31T23:42:44.442Z,6.23
2017-07-31T23:45:11.204Z,6.20
2017-07-31T23:47:37.784Z,6.47
2017-07-31T23:50:04.369Z,5.30
2017-07-31T23:52:30.952Z,6.50
2017-07-31T23:54:57.526Z,5.97
2017-07-31T23:57:24.111Z,5.57
2017-07-31T23:59:50.736Z,5.30
